Time;durP1;ratioP1;P1;durP2;ratioP2;P2;SDS_P1;SDS_P2;PMS_P1;PMS_P2;Temp;Humidity;BMP_temperature;BMP_pressure;BME280_temperature;BME280_humidity;BME280_pressure;Samples;Min_cycle;Max_cycle;Signal;HPM_P1;HPM_P2
2022/10/09 00:00:39;;;;;;;15.82;9.85;;;7.30;85.80;;;;;;5005595;28;20120;-77
2022/10/09 00:03:05;;;;;;;17.08;9.23;;;7.30;85.60;;;;;;5009015;28;20477;-77
2022/10/09 00:05:30;;;;;;;19.25;10.00;;;7.30;85.70;;;;;;5008258;28;20141;-77
2022/10/09 00:07:56;;;;;;;15.10;9.55;;;7.20;85.80;;;;;;5005285;28;20160;-78
2022/10/09 00:10:22;;;;;;;17.45;10.27;;;7.20;85.90;;;;;;5002381;28;20468;-79
2022/10/09 00:12:47;;;;;;;17.90;10.50;;;7.20;85.90;;;;;;5009904;28;20566;-80
2022/10/09 00:15:13;;;;;;;17.25;10.57;;;7.20;85.90;;;;;;5004546;28;20034;-78
2022/10/09 00:17:39;;;;;;;17.55;10.35;;;7.20;86.00;;;;;;5006344;28;20399;-78
2022/10/09 00:20:05;;;;;;;19.58;11.70;;;7.20;86.10;;;;;;5005250;28;20041;-79
2022/10/09 00:22:31;;;;;;;18.70;11.38;;;7.20;86.20;;;;;;5008407;28;20032;-77
2022/10/09 00:24:57;;;;;;;19.20;12.98;;;7.20;86.20;;;;;;5006594;28;20037;-77
2022/10/09 00:27:22;;;;;;;16.85;11.18;;;7.20;86.30;;;;;;5004629;28;20041;-78
2022/10/09 00:29:48;;;;;;;20.77;11.25;;;7.20;86.20;;;;;;5002782;28;20026;-79
2022/10/09 00:32:14;;;;;;;15.65;9.38;;;7.10;86.30;;;;;;5002693;28;20177;-77
2022/10/09 00:34:40;;;;;;;17.23;10.10;;;7.00;86.40;;;;;;5004942;28;20517;-77
2022/10/09 00:37:06;;;;;;;17.00;9.38;;;7.00;86.60;;;;;;5009393;28;20516;-79
2022/10/09 00:39:31;;;;;;;15.18;9.73;;;7.00;86.60;;;;;;5004646;28;20030;-78
2022/10/09 00:41:57;;;;;;;17.00;10.30;;;7.00;86.60;;;;;;5005274;28;20112;-78
2022/10/09 00:44:59;;;;;;;16.63;8.60;;;7.00;86.70;;;;;;5001055;28;20389;-78
2022/10/09 00:47:30;;;;;;;15.70;8.57;;;6.90;86.60;;;;;;5004402;28;20171;-78
2022/10/09 00:50:10;;;;;;;15.40;8.27;;;6.90;86.50;;;;;;5004806;28;20053;-78
2022/10/09 00:52:36;;;;;;;12.60;7.95;;;6.90;86.40;;;;;;5004381;28;20037;-78
2022/10/09 00:55:03;;;;;;;12.90;8.60;;;6.90;86.20;;;;;;5002611;28;20026;-77
2022/10/09 00:57:31;;;;;;;15.02;9.35;;;6.80;86.10;;;;;;5005132;28;20041;-78
2022/10/09 01:00:00;;;;;;;17.58;8.35;;;6.80;86.00;;;;;;5003488;28;20044;-78
2022/10/09 01:02:25;;;;;;;15.02;8.25;;;6.80;86.30;;;;;;5003411;28;20129;-77
2022/10/09 01:04:51;;;;;;;12.80;7.60;;;6.80;86.30;;;;;;5003278;28;20123;-78
2022/10/09 01:07:30;;;;;;;12.38;8.10;;;6.80;86.20;;;;;;5003334;28;20392;-78
2022/10/09 01:10:09;;;;;;;16.50;8.52;;;6.80;86.10;;;;;;4998404;28;20034;-78
2022/10/09 01:12:45;;;;;;;14.65;7.97;;;6.60;86.10;;;;;;5002683;28;20061;-78
2022/10/09 01:15:38;;;;;;;13.40;8.07;;;6.60;86.30;;;;;;5003973;28;20482;-79
2022/10/09 01:18:29;;;;;;;13.57;7.95;;;6.70;86.20;;;;;;5000611;28;20041;-77
2022/10/09 01:21:07;;;;;;;16.52;8.40;;;6.60;85.90;;;;;;4993588;28;20331;-78
2022/10/09 01:24:00;;;;;;;13.52;7.93;;;6.60;85.80;;;;;;4995867;28;20030;-78
2022/10/09 01:26:50;;;;;;;18.70;9.70;;;6.50;85.80;;;;;;5001665;28;20812;-77
2022/10/09 01:29:19;;;;;;;15.27;8.38;;;6.50;86.00;;;;;;5003853;28;20042;-78
2022/10/09 01:31:47;;;;;;;13.02;7.93;;;6.50;86.20;;;;;;5022685;28;20115;-78
2022/10/09 01:34:15;;;;;;;14.80;9.05;;;6.50;86.30;;;;;;5004693;28;20033;-78
2022/10/09 01:36:43;;;;;;;15.07;8.93;;;6.40;86.30;;;;;;5002976;28;20486;-77
2022/10/09 01:39:14;;;;;;;16.02;9.02;;;6.40;86.40;;;;;;5002823;28;20485;-81
2022/10/09 01:41:40;;;;;;;17.50;9.38;;;6.40;86.40;;;;;;5004467;28;20038;-77
2022/10/09 01:44:35;;;;;;;13.52;8.35;;;6.40;86.40;;;;;;5002693;28;20113;-77
2022/10/09 01:47:01;;;;;;;13.30;8.43;;;6.40;86.40;;;;;;4994367;28;20485;-77
2022/10/09 01:49:45;;;;;;;17.77;8.00;;;6.40;86.40;;;;;;5002488;28;20452;-78
2022/10/09 01:52:37;;;;;;;14.20;8.57;;;6.40;86.30;;;;;;5011308;28;20774;-78
2022/10/09 01:55:30;;;;;;;16.85;8.80;;;6.30;86.10;;;;;;5002570;28;20030;-79
2022/10/09 01:58:03;;;;;;;13.73;8.20;;;6.30;86.10;;;;;;5016526;28;20050;-78
2022/10/09 02:00:33;;;;;;;15.35;8.30;;;6.30;85.80;;;;;;5002388;28;20453;-78
2022/10/09 02:03:00;;;;;;;14.48;8.50;;;6.30;85.80;;;;;;5002816;28;20080;-79
2022/10/09 02:05:28;;;;;;;15.10;8.43;;;6.20;85.70;;;;;;5014183;28;20041;-80
2022/10/09 02:07:55;;;;;;;19.23;9.20;;;6.20;85.70;;;;;;5003813;28;20468;-78
2022/10/09 02:10:22;;;;;;;18.20;9.23;;;6.20;85.90;;;;;;5021203;28;20045;-79
2022/10/09 02:12:56;;;;;;;15.23;8.80;;;6.20;85.80;;;;;;5017357;28;20148;-79
2022/10/09 02:15:30;;;;;;;14.55;8.32;;;6.20;85.60;;;;;;5000755;28;20034;-79
2022/10/09 02:18:01;;;;;;;12.40;8.73;;;6.10;85.70;;;;;;5004820;28;20053;-79
2022/10/09 02:20:31;;;;;;;13.70;8.95;;;6.10;85.80;;;;;;5005014;28;20037;-79
2022/10/09 02:23:00;;;;;;;16.05;8.48;;;6.10;86.00;;;;;;5005482;28;20465;-80
2022/10/09 02:25:27;;;;;;;13.85;8.20;;;6.10;86.20;;;;;;5001427;28;20465;-78
2022/10/09 02:27:53;;;;;;;16.23;8.43;;;6.10;86.30;;;;;;5006003;28;20026;-78
2022/10/09 02:30:20;;;;;;;13.40;8.45;;;6.10;86.30;;;;;;5004828;28;20044;-78
2022/10/09 02:32:51;;;;;;;14.88;8.10;;;6.00;86.40;;;;;;5006435;28;20092;-77
2022/10/09 02:35:16;;;;;;;13.25;7.60;;;6.10;86.40;;;;;;5005987;28;20026;-78
2022/10/09 02:37:42;;;;;;;15.80;8.20;;;6.10;86.20;;;;;;5008491;28;20044;-78
2022/10/09 02:40:08;;;;;;;12.10;7.65;;;6.00;86.00;;;;;;5006769;28;20057;-78
2022/10/09 02:42:34;;;;;;;13.77;8.02;;;6.00;85.90;;;;;;5009073;28;20029;-78
2022/10/09 02:44:59;;;;;;;13.60;7.90;;;6.00;85.90;;;;;;5011292;28;20038;-79
2022/10/09 02:47:25;;;;;;;15.93;7.82;;;6.00;85.70;;;;;;5010456;28;20608;-79
2022/10/09 02:49:50;;;;;;;13.52;7.13;;;5.90;85.90;;;;;;5012988;28;20044;-79
2022/10/09 02:52:16;;;;;;;14.57;7.43;;;5.90;86.00;;;;;;5006568;28;20034;-78
2022/10/09 02:54:42;;;;;;;12.20;7.13;;;5.90;85.90;;;;;;5004078;28;20124;-77
2022/10/09 02:57:07;;;;;;;16.90;8.00;;;5.90;85.80;;;;;;5008042;28;20034;-78
2022/10/09 02:59:33;;;;;;;15.57;8.10;;;5.90;85.80;;;;;;5007223;28;20037;-76
2022/10/09 03:01:59;;;;;;;13.00;7.35;;;5.80;85.80;;;;;;5005175;28;20033;-78
2022/10/09 03:04:24;;;;;;;13.00;7.88;;;5.80;85.80;;;;;;5019694;28;20165;-78
2022/10/09 03:06:50;;;;;;;12.70;7.57;;;5.80;85.90;;;;;;5004729;28;20030;-78
2022/10/09 03:09:15;;;;;;;14.25;7.72;;;5.80;86.00;;;;;;5000775;28;20026;-78
2022/10/09 03:11:41;;;;;;;16.08;8.40;;;5.80;86.00;;;;;;5005449;28;20615;-77
2022/10/09 03:14:08;;;;;;;14.63;8.57;;;5.70;85.90;;;;;;5006257;28;20046;-77
2022/10/09 03:16:33;;;;;;;11.75;7.55;;;5.70;86.10;;;;;;5005874;28;20069;-78
2022/10/09 03:18:59;;;;;;;12.85;7.55;;;5.70;86.10;;;;;;5010741;28;20064;-79
2022/10/09 03:21:27;;;;;;;12.52;7.90;;;5.70;86.00;;;;;;5008481;28;20401;-79
2022/10/09 03:23:53;;;;;;;15.45;7.80;;;5.70;85.80;;;;;;5008385;28;20529;-79
2022/10/09 03:26:22;;;;;;;16.90;7.72;;;5.70;85.70;;;;;;5005190;28;20041;-79
2022/10/09 03:28:50;;;;;;;12.68;7.30;;;5.70;85.70;;;;;;5002010;28;20062;-79
2022/10/09 03:31:18;;;;;;;15.00;8.38;;;5.60;85.80;;;;;;4993477;28;20046;-78
2022/10/09 03:33:43;;;;;;;12.88;7.28;;;5.50;86.00;;;;;;5006680;28;20450;-79
2022/10/09 03:36:10;;;;;;;14.18;8.13;;;5.50;86.10;;;;;;5013080;28;20052;-79
2022/10/09 03:38:35;;;;;;;15.10;7.47;;;5.50;86.30;;;;;;5005218;28;20077;-78
2022/10/09 03:41:03;;;;;;;12.20;7.00;;;5.50;86.40;;;;;;5015730;28;20478;-78
2022/10/09 03:43:29;;;;;;;13.27;7.70;;;5.50;86.40;;;;;;5005880;28;20061;-78
2022/10/09 03:45:55;;;;;;;13.18;7.03;;;5.60;86.30;;;;;;5011957;28;20057;-80
2022/10/09 03:48:21;;;;;;;13.23;6.78;;;5.60;86.40;;;;;;5006625;28;20030;-78
2022/10/09 03:50:47;;;;;;;17.05;7.05;;;5.50;86.40;;;;;;5008259;28;20117;-78
2022/10/09 03:53:14;;;;;;;11.10;6.30;;;5.50;86.50;;;;;;5009123;28;20327;-78
2022/10/09 03:55:40;;;;;;;12.50;7.57;;;5.50;86.50;;;;;;5005419;28;20033;-77
2022/10/09 03:58:06;;;;;;;12.77;6.88;;;5.40;86.40;;;;;;5006734;28;20096;-79
2022/10/09 04:00:33;;;;;;;12.32;6.93;;;5.40;86.50;;;;;;5005093;28;20041;-78
2022/10/09 04:02:58;;;;;;;15.80;6.93;;;5.40;86.50;;;;;;5002143;28;20045;-79
2022/10/09 04:05:24;;;;;;;11.55;6.50;;;5.40;86.60;;;;;;5006430;28;20504;-79
2022/10/09 04:07:50;;;;;;;12.80;7.10;;;5.50;86.70;;;;;;5009695;28;20030;-79
2022/10/09 04:10:16;;;;;;;13.68;7.07;;;5.50;86.80;;;;;;5004872;28;20389;-79
2022/10/09 04:12:41;;;;;;;13.48;7.40;;;5.50;86.90;;;;;;5019023;28;20030;-79
2022/10/09 04:15:08;;;;;;;16.70;8.60;;;5.50;87.00;;;;;;5004933;28;20501;-79
2022/10/09 04:17:34;;;;;;;13.65;7.22;;;5.50;87.10;;;;;;5005963;28;20049;-77
2022/10/09 04:20:00;;;;;;;14.10;6.70;;;5.50;87.20;;;;;;5005077;28;20046;-79
2022/10/09 04:22:25;;;;;;;11.88;7.13;;;5.60;87.20;;;;;;4999788;28;20057;-77
2022/10/09 04:24:51;;;;;;;12.60;7.00;;;5.60;87.30;;;;;;5003708;28;20410;-78
2022/10/09 04:27:16;;;;;;;12.05;7.18;;;5.50;87.30;;;;;;4996766;28;20026;-78
2022/10/09 04:29:42;;;;;;;12.00;6.55;;;5.50;87.30;;;;;;5003409;28;20540;-78
2022/10/09 04:32:08;;;;;;;10.45;6.82;;;5.50;87.30;;;;;;5004075;28;20409;-79
2022/10/09 04:34:33;;;;;;;11.07;6.57;;;5.50;87.40;;;;;;5002208;28;20030;-81
2022/10/09 04:36:59;;;;;;;11.63;6.70;;;5.50;87.30;;;;;;5008752;28;20477;-78
2022/10/09 04:39:25;;;;;;;12.32;6.95;;;5.50;87.30;;;;;;5003684;28;20045;-79
2022/10/09 04:41:51;;;;;;;11.50;7.10;;;5.40;87.30;;;;;;5008167;28;20068;-77
2022/10/09 04:44:16;;;;;;;10.77;6.57;;;5.40;87.30;;;;;;5003586;28;20096;-78
2022/10/09 04:46:42;;;;;;;13.85;7.80;;;5.40;87.30;;;;;;5005024;28;20037;-78
2022/10/09 04:49:12;;;;;;;11.00;6.72;;;5.40;87.30;;;;;;5012191;28;20036;-77
2022/10/09 04:51:37;;;;;;;10.82;6.28;;;5.40;87.20;;;;;;4998283;28;20040;-78
2022/10/09 04:54:03;;;;;;;10.52;6.25;;;5.30;87.20;;;;;;5003851;28;20042;-79
2022/10/09 04:56:29;;;;;;;11.23;7.03;;;5.30;87.00;;;;;;5004329;28;20034;-77
2022/10/09 04:58:55;;;;;;;10.18;6.95;;;5.30;86.90;;;;;;5004472;28;20033;-78
2022/10/09 05:01:23;;;;;;;11.43;6.93;;;5.30;86.70;;;;;;5003859;28;20034;-78
2022/10/09 05:03:49;;;;;;;12.73;6.65;;;5.30;86.70;;;;;;5004038;28;20034;-77
2022/10/09 05:06:16;;;;;;;11.77;6.57;;;5.30;86.70;;;;;;5004121;28;20087;-78
2022/10/09 05:08:42;;;;;;;11.00;6.85;;;5.20;86.60;;;;;;4998340;28;20034;-77
2022/10/09 05:11:13;;;;;;;12.10;7.00;;;5.20;86.70;;;;;;4994466;28;20048;-78
2022/10/09 05:13:43;;;;;;;10.82;6.72;;;5.20;86.60;;;;;;5005360;28;20044;-78
2022/10/09 05:16:11;;;;;;;13.25;7.35;;;5.20;86.70;;;;;;5004983;28;20040;-78
2022/10/09 05:18:42;;;;;;;14.35;7.00;;;5.20;86.80;;;;;;5002408;28;20061;-78
2022/10/09 05:21:08;;;;;;;11.70;6.90;;;5.10;86.80;;;;;;5006216;28;20486;-79
2022/10/09 05:23:34;;;;;;;11.70;7.03;;;5.10;87.00;;;;;;5013989;28;20098;-79
2022/10/09 05:26:06;;;;;;;16.38;7.60;;;5.10;87.10;;;;;;5019860;28;20066;-79
2022/10/09 05:28:33;;;;;;;13.60;7.65;;;5.10;87.40;;;;;;4986211;28;20108;-78
2022/10/09 05:30:59;;;;;;;12.43;7.28;;;5.10;87.50;;;;;;5005168;28;20044;-78
2022/10/09 05:33:24;;;;;;;17.13;7.82;;;5.10;87.50;;;;;;5003327;28;20038;-79
2022/10/09 05:35:55;;;;;;;11.77;6.93;;;5.10;87.60;;;;;;5005447;28;20141;-78
2022/10/09 05:38:22;;;;;;;13.10;7.28;;;5.10;87.60;;;;;;5003758;28;20091;-78
2022/10/09 05:40:57;;;;;;;13.48;7.68;;;5.10;87.50;;;;;;5014650;28;20462;-78
2022/10/09 05:43:24;;;;;;;;;;;5.10;87.60;;;;;;5008453;28;20319;-78
2022/10/09 05:45:50;;;;;;;13.93;7.80;;;5.10;87.50;;;;;;5004519;28;20427;-78
2022/10/09 05:48:16;;;;;;;14.25;7.80;;;5.10;87.60;;;;;;5003554;28;20142;-78
2022/10/09 05:50:41;;;;;;;13.13;8.23;;;5.10;87.50;;;;;;5002588;28;20034;-78
2022/10/09 05:53:07;;;;;;;12.70;7.28;;;5.10;87.40;;;;;;5009555;28;20030;-77
2022/10/09 05:55:33;;;;;;;13.82;7.60;;;5.10;87.40;;;;;;5006873;28;20065;-80
2022/10/09 05:57:58;;;;;;;13.35;8.07;;;5.10;87.40;;;;;;5007978;28;20525;-78
2022/10/09 06:00:24;;;;;;;14.50;9.13;;;5.10;87.50;;;;;;5006056;28;20046;-80
2022/10/09 06:02:50;;;;;;;19.73;11.77;;;5.10;87.50;;;;;;5007292;28;20034;-79
2022/10/09 06:05:15;;;;;;;18.00;11.38;;;5.10;87.50;;;;;;5007236;28;20029;-80
2022/10/09 06:07:41;;;;;;;21.45;10.95;;;5.10;87.60;;;;;;5007633;28;20061;-79
2022/10/09 06:10:07;;;;;;;20.00;12.00;;;5.10;87.60;;;;;;5007105;28;20149;-78
2022/10/09 06:12:33;;;;;;;16.67;12.35;;;5.10;87.60;;;;;;5007245;28;20038;-80
2022/10/09 06:14:58;;;;;;;19.50;12.23;;;5.20;87.70;;;;;;5008412;28;20072;-79
2022/10/09 06:17:24;;;;;;;17.17;11.02;;;5.30;87.70;;;;;;5010723;28;20306;-78
2022/10/09 06:19:49;;;;;;;14.65;10.70;;;5.30;87.70;;;;;;5006057;28;20465;-77
2022/10/09 06:22:15;;;;;;;18.00;11.63;;;5.40;87.70;;;;;;5005073;28;20048;-78
2022/10/09 06:24:41;;;;;;;15.57;10.45;;;5.40;87.80;;;;;;5009630;28;20071;-77
2022/10/09 06:27:06;;;;;;;18.83;10.35;;;5.50;87.80;;;;;;5006836;28;20495;-77
2022/10/09 06:29:32;;;;;;;13.85;10.30;;;5.60;87.90;;;;;;5006458;28;20044;-78
2022/10/09 06:31:57;;;;;;;17.52;9.25;;;5.60;87.90;;;;;;5003918;28;20651;-78
2022/10/09 06:34:23;;;;;;;18.85;9.63;;;5.70;88.00;;;;;;5005228;28;20092;-77
2022/10/09 06:36:49;;;;;;;20.30;9.52;;;5.70;88.00;;;;;;5008580;28;20061;-77
2022/10/09 06:39:15;;;;;;;17.63;8.85;;;5.80;88.00;;;;;;5007848;28;20084;-77
2022/10/09 06:41:40;;;;;;;16.63;9.05;;;5.90;88.00;;;;;;5011107;28;20021;-77
2022/10/09 06:44:09;;;;;;;14.27;8.40;;;6.00;88.00;;;;;;5024161;28;20333;-79
2022/10/09 06:46:38;;;;;;;15.68;7.15;;;6.10;88.00;;;;;;5008724;28;20030;-77
2022/10/09 06:49:06;;;;;;;19.48;8.50;;;6.10;87.90;;;;;;5006882;28;20030;-79
2022/10/09 06:51:33;;;;;;;18.40;9.95;;;6.20;87.80;;;;;;5009756;28;20424;-79
2022/10/09 06:54:01;;;;;;;19.55;9.35;;;6.10;87.90;;;;;;5004410;28;20110;-79
2022/10/09 06:56:29;;;;;;;21.05;9.95;;;6.20;87.80;;;;;;5005721;28;20236;-79
2022/10/09 06:58:55;;;;;;;19.17;8.63;;;6.20;87.90;;;;;;5008906;28;20053;-79
2022/10/09 07:01:25;;;;;;;23.73;10.55;;;6.30;87.90;;;;;;5003345;28;20045;-78
2022/10/09 07:03:56;;;;;;;21.60;10.82;;;6.40;87.90;;;;;;5008374;28;20407;-78
2022/10/09 07:06:25;;;;;;;25.08;11.75;;;6.40;87.90;;;;;;5005343;28;20496;-78
2022/10/09 07:08:54;;;;;;;24.20;13.68;;;6.40;87.90;;;;;;5008965;28;20038;-77
2022/10/09 07:11:25;;;;;;;34.60;23.00;;;6.50;88.00;;;;;;5005950;28;20312;-78
2022/10/09 07:13:57;;;;;;;53.72;37.63;;;6.60;88.10;;;;;;5006353;28;20108;-84
2022/10/09 07:16:28;;;;;;;47.13;34.38;;;6.70;88.20;;;;;;5020128;28;20160;-82
2022/10/09 07:18:54;;;;;;;44.20;30.63;;;6.80;88.30;;;;;;5006239;28;20131;-82
2022/10/09 07:21:22;;;;;;;35.47;25.05;;;6.90;88.40;;;;;;5010110;28;20534;-83
2022/10/09 07:23:48;;;;;;;31.80;19.25;;;7.00;88.50;;;;;;5021593;28;20025;-84
2022/10/09 07:26:17;;;;;;;32.28;18.90;;;7.10;88.70;;;;;;5006387;28;20416;-83
2022/10/09 07:28:42;;;;;;;30.35;17.33;;;7.20;88.80;;;;;;5005910;28;20119;-78
2022/10/09 07:31:10;;;;;;;27.58;16.20;;;7.40;89.00;;;;;;5006314;28;20025;-81
2022/10/09 07:33:35;;;;;;;28.90;16.60;;;7.50;89.10;;;;;;5008062;28;20038;-83
2022/10/09 07:36:03;;;;;;;29.00;15.27;;;7.60;89.20;;;;;;5010530;28;20389;-80
2022/10/09 07:38:29;;;;;;;26.27;14.13;;;7.80;89.20;;;;;;5010122;28;20034;-78
2022/10/09 07:41:03;;;;;;;21.17;12.90;;;7.90;89.40;;;;;;5009559;28;20038;-83
2022/10/09 07:43:29;;;;;;;22.10;12.15;;;8.10;89.40;;;;;;5003978;28;20545;-77
2022/10/09 07:46:02;;;;;;;22.50;14.00;;;8.20;89.50;;;;;;5008380;28;20032;-83
2022/10/09 07:48:28;;;;;;;23.02;14.57;;;8.40;89.40;;;;;;5001341;28;20025;-81
2022/10/09 07:50:54;;;;;;;21.23;12.40;;;8.60;89.50;;;;;;5004785;28;20152;-81
2022/10/09 07:53:20;;;;;;;19.63;11.85;;;8.70;89.50;;;;;;5008860;28;20529;-82
2022/10/09 07:55:47;;;;;;;17.45;9.63;;;9.00;89.30;;;;;;5005775;28;20052;-84
2022/10/09 07:58:14;;;;;;;17.85;9.95;;;9.20;89.20;;;;;;5007485;28;20045;-79
2022/10/09 08:00:39;;;;;;;20.42;9.10;;;9.40;88.40;;;;;;5003865;28;20038;-78
2022/10/09 08:03:05;;;;;;;18.73;9.98;;;9.70;87.60;;;;;;5006747;28;20033;-80
2022/10/09 08:05:31;;;;;;;12.98;6.53;;;10.00;86.70;;;;;;5027027;28;20025;-80
2022/10/09 08:07:56;;;;;;;13.07;5.60;;;10.20;85.70;;;;;;5008970;28;20792;-80
2022/10/09 08:10:22;;;;;;;12.90;5.60;;;10.40;84.60;;;;;;5002408;28;20524;-81
2022/10/09 08:12:48;;;;;;;11.38;4.45;;;10.70;83.10;;;;;;5004834;28;20104;-81
2022/10/09 08:15:14;;;;;;;9.75;4.13;;;11.00;81.20;;;;;;5001254;28;20030;-80
2022/10/09 08:17:39;;;;;;;9.48;4.18;;;11.20;80.20;;;;;;5021219;28;20041;-79
2022/10/09 08:20:05;;;;;;;10.90;4.05;;;11.50;79.60;;;;;;5008092;28;20042;-80
2022/10/09 08:22:31;;;;;;;12.93;4.00;;;11.70;77.70;;;;;;5002387;28;20515;-81
2022/10/09 08:24:57;;;;;;;14.00;4.28;;;12.00;76.40;;;;;;5007007;28;20307;-82
2022/10/09 08:27:23;;;;;;;12.27;4.18;;;12.10;75.80;;;;;;5003906;28;20113;-82
2022/10/09 08:29:48;;;;;;;10.98;3.95;;;12.40;74.70;;;;;;5003913;28;20492;-78
2022/10/09 08:32:14;;;;;;;13.32;4.30;;;12.60;73.10;;;;;;5002390;28;20056;-77
2022/10/09 08:34:40;;;;;;;8.27;3.88;;;12.70;72.90;;;;;;4997865;28;20026;-78
2022/10/09 08:37:05;;;;;;;11.68;3.50;;;12.90;72.10;;;;;;5000322;28;20478;-78
2022/10/09 08:39:31;;;;;;;10.38;3.80;;;13.10;71.60;;;;;;5002502;28;20022;-78
2022/10/09 08:42:02;;;;;;;11.32;4.03;;;13.20;71.00;;;;;;5015214;28;20048;-79
2022/10/09 08:44:31;;;;;;;15.15;4.68;;;13.40;70.30;;;;;;4992492;28;20406;-78
2022/10/09 08:47:01;;;;;;;9.48;3.60;;;13.50;69.70;;;;;;5003197;28;20038;-79
2022/10/09 08:49:45;;;;;;;10.32;3.50;;;13.60;69.60;;;;;;4982447;28;20049;-79
2022/10/09 08:52:23;;;;;;;10.32;3.65;;;13.70;69.20;;;;;;4992987;28;20137;-79
2022/10/09 08:54:49;;;;;;;10.60;4.10;;;14.00;69.30;;;;;;5002891;28;20038;-77
2022/10/09 08:57:16;;;;;;;8.40;3.50;;;14.10;69.00;;;;;;5000459;28;20125;-81
2022/10/09 08:59:42;;;;;;;10.57;3.85;;;14.30;69.10;;;;;;5001793;28;20034;-80
2022/10/09 09:02:39;;;;;;;9.98;3.60;;;14.50;67.70;;;;;;5001305;28;20433;-80
2022/10/09 09:05:29;;;;;;;8.35;3.75;;;14.60;66.60;;;;;;5000127;28;20116;-81
2022/10/09 09:07:57;;;;;;;11.05;4.72;;;14.70;65.40;;;;;;5002230;28;20383;-81
2022/10/09 09:10:41;;;;;;;8.88;3.53;;;14.80;65.30;;;;;;5017903;28;20034;-79
2022/10/09 09:13:43;;;;;;;9.77;3.80;;;14.90;64.30;;;;;;5002609;28;20037;-80
2022/10/09 09:16:21;;;;;;;12.70;3.40;;;14.90;63.40;;;;;;4997444;28;20077;-80
2022/10/09 09:19:09;;;;;;;9.82;3.58;;;15.00;62.50;;;;;;5004947;28;20033;-81
2022/10/09 09:21:50;;;;;;;9.43;3.42;;;15.10;62.90;;;;;;4999981;28;20046;-80
2022/10/09 09:24:19;;;;;;;9.30;3.00;;;15.20;62.80;;;;;;5022514;28;20064;-80
2022/10/09 09:26:49;;;;;;;7.82;3.13;;;15.30;62.00;;;;;;5025636;28;20090;-79
2022/10/09 09:29:20;;;;;;;8.10;3.10;;;15.40;61.80;;;;;;5010471;28;20034;-81
2022/10/09 09:31:49;;;;;;;9.05;3.17;;;15.60;61.30;;;;;;5006071;28;20478;-78
2022/10/09 09:34:38;;;;;;;6.28;2.90;;;15.50;60.50;;;;;;5006604;28;20038;-79
2022/10/09 09:37:04;;;;;;;7.75;2.65;;;15.40;60.20;;;;;;4999290;28;20046;-81
2022/10/09 09:39:34;;;;;;;9.02;2.88;;;15.40;61.00;;;;;;5008131;28;20026;-81
2022/10/09 09:42:08;;;;;;;6.25;2.45;;;15.50;61.20;;;;;;5005363;28;20504;-80
2022/10/09 09:44:39;;;;;;;8.13;3.00;;;15.70;60.60;;;;;;5000638;28;20034;-79
2022/10/09 09:47:16;;;;;;;9.30;3.38;;;15.80;59.60;;;;;;5010763;28;20050;-81
2022/10/09 09:50:00;;;;;;;8.15;2.47;;;15.90;60.60;;;;;;5010232;28;20038;-80
2022/10/09 09:52:28;;;;;;;8.80;3.40;;;16.00;59.00;;;;;;5006617;28;20042;-79
2022/10/09 09:54:56;;;;;;;11.52;2.97;;;16.00;58.20;;;;;;5007431;28;20034;-78
2022/10/09 09:57:35;;;;;;;6.80;3.03;;;16.10;57.90;;;;;;5005790;28;20355;-79
2022/10/09 10:00:17;;;;;;;8.68;3.10;;;16.00;58.20;;;;;;5013885;28;20029;-80
2022/10/09 10:02:43;;;;;;;6.30;2.65;;;16.10;57.30;;;;;;5006609;28;20053;-80
2022/10/09 10:05:39;;;;;;;9.32;2.58;;;16.10;57.90;;;;;;5005123;28;20036;-79
2022/10/09 10:08:28;;;;;;;6.28;2.53;;;16.20;57.60;;;;;;5016500;28;20033;-80
2022/10/09 10:11:04;;;;;;;9.27;2.70;;;16.40;58.30;;;;;;5027608;28;20054;-80
2022/10/09 10:13:37;;;;;;;9.18;3.13;;;16.50;57.70;;;;;;5014768;28;20026;-80
2022/10/09 10:16:04;;;;;;;8.90;3.00;;;16.50;57.10;;;;;;5008065;28;20049;-80
2022/10/09 10:18:38;;;;;;;8.95;3.17;;;16.50;56.30;;;;;;5010479;28;20112;-79
2022/10/09 10:21:15;;;;;;;7.28;2.70;;;16.60;56.40;;;;;;5013898;28;20049;-79
2022/10/09 10:23:48;;;;;;;7.55;2.70;;;16.50;56.80;;;;;;5008963;28;20049;-78
2022/10/09 10:26:24;;;;;;;9.18;2.78;;;16.70;56.70;;;;;;5006267;28;20038;-79
2022/10/09 10:29:04;;;;;;;7.80;3.00;;;16.80;56.40;;;;;;5005647;28;20499;-79
2022/10/09 10:31:50;;;;;;;5.50;2.63;;;16.80;56.50;;;;;;4996146;28;20076;-79
2022/10/09 10:34:25;;;;;;;8.07;2.90;;;16.90;55.90;;;;;;5006781;28;20030;-79
2022/10/09 10:37:00;;;;;;;7.55;2.63;;;16.80;55.40;;;;;;5005988;28;20042;-79
2022/10/09 10:39:35;;;;;;;9.60;2.90;;;16.90;55.60;;;;;;5004373;28;20034;-79
2022/10/09 10:42:05;;;;;;;8.20;3.15;;;17.10;55.70;;;;;;5005172;28;20160;-79
2022/10/09 10:44:49;;;;;;;7.55;2.90;;;17.00;55.50;;;;;;5018150;28;20053;-79
2022/10/09 10:47:20;;;;;;;10.10;3.33;;;17.30;55.80;;;;;;5011523;28;20076;-79
2022/10/09 10:49:46;;;;;;;7.75;2.92;;;17.50;55.20;;;;;;5003091;28;20037;-79
2022/10/09 10:52:36;;;;;;;7.60;2.63;;;17.50;55.50;;;;;;5003271;28;20034;-80
2022/10/09 10:55:28;;;;;;;8.48;3.40;;;17.60;55.60;;;;;;4998129;28;20064;-79
2022/10/09 10:58:17;;;;;;;10.27;3.78;;;17.60;54.20;;;;;;4998278;28;20041;-79
2022/10/09 11:00:52;;;;;;;8.13;3.35;;;17.70;54.80;;;;;;5001016;28;20088;-79
2022/10/09 11:03:27;;;;;;;9.70;3.03;;;17.80;54.70;;;;;;5013489;28;20107;-78
2022/10/09 11:06:15;;;;;;;9.80;2.78;;;17.70;54.50;;;;;;4977517;28;20038;-78
2022/10/09 11:09:06;;;;;;;9.18;3.55;;;17.80;54.20;;;;;;4993572;28;20460;-79
2022/10/09 11:12:03;;;;;;;8.85;3.20;;;17.90;55.20;;;;;;4997221;28;20041;-78
2022/10/09 11:14:49;;;;;;;7.57;3.45;;;17.70;55.30;;;;;;4998088;28;20381;-79
2022/10/09 11:17:33;;;;;;;8.68;3.38;;;17.80;55.20;;;;;;4999373;28;20121;-79
2022/10/09 11:20:05;;;;;;;9.30;3.80;;;17.60;55.70;;;;;;4999978;28;20049;-79
2022/10/09 11:22:58;;;;;;;10.07;3.88;;;17.60;56.90;;;;;;4994564;28;20479;-79
2022/10/09 11:25:57;;;;;;;8.77;3.72;;;17.50;56.00;;;;;;5017521;28;20273;-79
2022/10/09 11:28:31;;;;;;;12.25;4.50;;;17.60;56.40;;;;;;5003061;28;20028;-82
2022/10/09 11:31:05;;;;;;;10.95;4.22;;;17.40;56.00;;;;;;4999149;28;20513;-79
2022/10/09 11:33:44;;;;;;;8.32;3.60;;;17.40;56.10;;;;;;4989841;28;20030;-81
2022/10/09 11:36:19;;;;;;;11.57;4.40;;;17.30;57.40;;;;;;5004706;28;20050;-80
2022/10/09 11:39:01;;;;;;;9.50;4.05;;;17.50;56.80;;;;;;4999369;28;20470;-80
2022/10/09 11:41:29;;;;;;;11.98;4.70;;;17.60;56.90;;;;;;4996302;28;20034;-79
2022/10/09 11:44:26;;;;;;;11.32;4.03;;;17.80;56.80;;;;;;5002626;28;20060;-81
2022/10/09 11:47:16;;;;;;;10.45;4.15;;;18.00;57.00;;;;;;5002410;28;20034;-81
2022/10/09 11:49:45;;;;;;;12.13;3.63;;;18.10;55.70;;;;;;5001899;28;20358;-80
2022/10/09 11:52:27;;;;;;;10.00;3.85;;;18.30;55.80;;;;;;5003860;28;20030;-81
2022/10/09 11:54:53;;;;;;;9.48;3.85;;;18.30;55.40;;;;;;5002714;28;20037;-81
2022/10/09 11:57:28;;;;;;;9.60;4.18;;;18.20;56.50;;;;;;5000575;28;20046;-81
2022/10/09 12:00:06;;;;;;;9.07;3.38;;;18.30;56.60;;;;;;5005585;28;20505;-81
2022/10/09 12:02:32;;;;;;;11.05;4.20;;;18.30;55.80;;;;;;5014352;28;20060;-80
2022/10/09 12:04:58;;;;;;;9.23;4.18;;;18.10;56.60;;;;;;5024361;28;20029;-79
2022/10/09 12:07:34;;;;;;;9.85;3.90;;;18.00;56.90;;;;;;5005617;28;20037;-81
2022/10/09 12:10:02;;;;;;;10.10;4.38;;;18.10;56.60;;;;;;5004677;28;20084;-79
2022/10/09 12:12:28;;;;;;;9.13;4.00;;;18.00;56.40;;;;;;5014423;28;20034;-81
2022/10/09 12:14:53;;;;;;;7.38;3.35;;;18.10;56.90;;;;;;5015673;28;20052;-80
2022/10/09 12:17:22;;;;;;;12.13;4.13;;;18.30;57.30;;;;;;5006462;28;20072;-81
2022/10/09 12:20:02;;;;;;;11.48;4.03;;;18.50;57.10;;;;;;5000011;28;20041;-79
2022/10/09 12:22:39;;;;;;;11.02;4.03;;;18.50;56.00;;;;;;5000804;28;20065;-80
2022/10/09 12:25:14;;;;;;;10.45;4.78;;;18.60;55.70;;;;;;5000553;28;20175;-80
2022/10/09 12:27:40;;;;;;;9.40;3.80;;;18.60;56.10;;;;;;4999275;28;20397;-82
2022/10/09 12:30:12;;;;;;;9.32;3.78;;;18.60;55.40;;;;;;4996187;28;20052;-79
2022/10/09 12:32:54;;;;;;;7.72;3.35;;;18.60;56.00;;;;;;5006457;28;20056;-79
2022/10/09 12:35:36;;;;;;;9.60;3.60;;;18.60;54.70;;;;;;5006281;28;20061;-79
2022/10/09 12:38:13;;;;;;;11.18;3.92;;;18.70;54.10;;;;;;5001927;28;20042;-79
2022/10/09 12:40:45;;;;;;;9.52;3.83;;;18.60;55.60;;;;;;5011946;28;20082;-79
2022/10/09 12:43:16;;;;;;;8.77;3.45;;;18.50;54.90;;;;;;5001215;28;20524;-79
2022/10/09 12:45:44;;;;;;;8.95;4.03;;;18.40;55.50;;;;;;5002291;28;20466;-79
2022/10/09 12:48:12;;;;;;;8.98;3.80;;;18.30;55.40;;;;;;5001850;28;20040;-79
2022/10/09 12:50:38;;;;;;;11.60;4.07;;;18.40;55.50;;;;;;5002191;28;20490;-80
2022/10/09 12:53:17;;;;;;;7.22;3.70;;;18.40;55.60;;;;;;5005266;28;20038;-79
2022/10/09 12:55:49;;;;;;;17.90;5.00;;;18.50;54.80;;;;;;5010424;28;20026;-79
2022/10/09 12:58:31;;;;;;;7.30;3.40;;;18.60;54.70;;;;;;5027068;28;20018;-80
2022/10/09 13:01:00;;;;;;;9.20;4.10;;;18.50;55.20;;;;;;5017520;28;20069;-80
2022/10/09 13:03:35;;;;;;;8.55;3.95;;;18.60;54.80;;;;;;5027267;28;20022;-80